createdAt,value
2018-12-05T06:30:41.574Z,46.48
2018-12-05T06:33:09.052Z,55.00
2018-12-05T06:35:36.516Z,57.98
2018-12-05T06:38:04.043Z,51.37
2018-12-05T06:40:31.522Z,66.10
2018-12-05T06:42:58.973Z,51.77
2018-12-05T06:45:26.442Z,46.18
2018-12-05T06:47:53.894Z,47.00
2018-12-05T06:50:21.374Z,51.37
2018-12-05T06:52:48.830Z,43.10
2018-12-05T06:55:16.294Z,38.92
2018-12-05T06:57:43.741Z,38.50
2018-12-05T07:00:11.204Z,33.45
2018-12-05T07:02:38.649Z,37.28
2018-12-05T07:05:06.206Z,37.70
2018-12-05T07:07:33.694Z,27.27
2018-12-05T07:10:01.171Z,33.63
2018-12-05T07:12:28.631Z,35.40
2018-12-05T07:14:56.180Z,32.98
2018-12-05T07:17:23.654Z,30.77
2018-12-05T07:19:51.114Z,30.08
2018-12-05T07:22:18.571Z,31.95
2018-12-05T07:24:46.029Z,29.82
2018-12-05T07:27:13.499Z,33.23
2018-12-05T07:29:41.025Z,32.10
2018-12-05T07:32:08.495Z,30.92
2018-12-05T07:34:35.958Z,28.10
2018-12-05T07:37:03.439Z,28.98
2018-12-05T07:39:30.871Z,27.50
2018-12-05T07:41:58.337Z,33.58
2018-12-05T07:44:25.799Z,29.80
2018-12-05T07:46:53.274Z,35.75
2018-12-05T07:49:20.750Z,34.38
2018-12-05T07:51:48.210Z,26.35
2018-12-05T07:54:15.668Z,31.23
2018-12-05T07:56:43.148Z,33.42
2018-12-05T07:59:10.595Z,24.15
2018-12-05T08:01:38.091Z,31.80
2018-12-05T08:04:05.615Z,29.80
2018-12-05T08:06:33.073Z,28.32
2018-12-05T08:09:00.545Z,29.27
2018-12-05T08:11:28.003Z,29.70
2018-12-05T08:13:55.471Z,28.35
2018-12-05T08:16:22.922Z,27.10
2018-12-05T08:18:50.399Z,32.38
2018-12-05T08:21:17.871Z,31.68
2018-12-05T08:23:45.322Z,28.50
2018-12-05T08:26:12.780Z,31.15
2018-12-05T08:28:40.246Z,28.65
2018-12-05T08:31:07.713Z,28.00
2018-12-05T08:33:35.174Z,28.07
2018-12-05T08:36:02.621Z,30.02
2018-12-05T08:38:30.099Z,31.23
2018-12-05T08:40:57.585Z,31.97
2018-12-05T08:43:25.111Z,26.93
2018-12-05T08:45:52.581Z,27.45
2018-12-05T08:48:20.039Z,30.77
2018-12-05T08:50:47.511Z,26.68
2018-12-05T08:53:14.958Z,31.70
2018-12-05T08:55:42.423Z,25.85
2018-12-05T08:58:09.890Z,27.62
2018-12-05T09:00:37.351Z,26.52
2018-12-05T09:03:04.802Z,31.17
2018-12-05T09:05:32.274Z,24.95
2018-12-05T09:07:59.717Z,24.92
2018-12-05T09:10:27.192Z,28.10
2018-12-05T09:12:54.642Z,24.43
2018-12-05T09:15:22.204Z,29.35
2018-12-05T09:17:49.670Z,24.20
2018-12-05T09:20:17.156Z,27.55
2018-12-05T09:22:44.607Z,30.00
2018-12-05T09:25:12.087Z,31.62
2018-12-05T09:27:39.550Z,23.42
2018-12-05T09:30:07.252Z,25.12
2018-12-05T09:32:34.722Z,31.15
2018-12-05T09:35:02.192Z,28.67
2018-12-05T09:37:29.641Z,27.13
2018-12-05T09:39:57.116Z,28.52
2018-12-05T09:42:24.558Z,38.00
2018-12-05T09:44:52.022Z,26.77
2018-12-05T09:47:19.482Z,34.20
2018-12-05T09:49:46.955Z,31.48
2018-12-05T09:52:14.405Z,26.48
2018-12-05T09:54:41.861Z,26.82
2018-12-05T09:57:09.330Z,25.97
2018-12-05T09:59:36.784Z,30.40
2018-12-05T10:02:04.323Z,31.42
2018-12-05T10:04:31.761Z,26.60
2018-12-05T10:06:59.333Z,29.42
2018-12-05T10:09:26.778Z,27.60
2018-12-05T10:11:54.243Z,24.20
2018-12-05T10:14:21.717Z,30.15
2018-12-05T10:16:49.172Z,32.15
2018-12-05T10:19:16.644Z,36.25
2018-12-05T10:21:44.094Z,31.97
2018-12-05T10:24:11.566Z,26.37
2018-12-05T10:26:39.031Z,34.13
2018-12-05T10:29:06.509Z,30.55
2018-12-05T10:31:33.969Z,29.95
2018-12-05T10:34:01.447Z,23.55
2018-12-05T10:36:28.900Z,26.35
2018-12-05T10:38:56.379Z,36.73
2018-12-05T10:41:23.860Z,28.00
2018-12-05T10:43:51.314Z,29.40
2018-12-05T10:46:18.963Z,29.52
2018-12-05T10:48:46.642Z,26.70
2018-12-05T10:51:14.129Z,28.60
2018-12-05T10:53:41.671Z,25.35
2018-12-05T10:56:09.155Z,32.95
2018-12-05T10:58:36.620Z,36.73
2018-12-05T11:01:09.829Z,27.00
2018-12-05T11:03:37.324Z,28.10
2018-12-05T11:06:11.489Z,25.57
2018-12-05T11:08:44.762Z,23.62
2018-12-05T11:11:17.969Z,26.80
2018-12-05T11:13:51.342Z,29.25
2018-12-05T11:16:24.401Z,26.60
2018-12-05T11:18:57.703Z,25.62
2018-12-05T11:21:30.882Z,28.92
2018-12-05T11:24:05.035Z,29.65
2018-12-05T11:26:33.561Z,34.75
2018-12-05T11:29:01.031Z,29.02
2018-12-05T11:31:28.571Z,31.10
2018-12-05T11:33:56.123Z,24.18
2018-12-05T11:36:23.683Z,28.25
2018-12-05T11:38:51.147Z,29.92
2018-12-05T11:41:18.599Z,26.35
2018-12-05T11:43:46.086Z,24.23
2018-12-05T11:46:13.542Z,30.57
2018-12-05T11:48:41.019Z,27.22
2018-12-05T11:51:08.474Z,26.68
2018-12-05T11:53:35.943Z,33.75
2018-12-05T11:56:03.557Z,26.33
2018-12-05T11:58:31.006Z,26.77
2018-12-05T12:00:58.484Z,36.70
2018-12-05T12:03:25.944Z,29.15
2018-12-05T12:05:53.419Z,26.68
2018-12-05T12:08:20.862Z,31.02
2018-12-05T12:10:48.567Z,29.45
2018-12-05T12:13:16.018Z,33.10
2018-12-05T12:15:43.563Z,24.98
2018-12-05T12:18:11.017Z,31.93
2018-12-05T12:20:38.505Z,39.67
2018-12-05T12:23:05.950Z,31.73
2018-12-05T12:25:33.432Z,27.20
2018-12-05T12:28:00.881Z,49.30
2018-12-05T12:30:28.361Z,35.90
2018-12-05T12:32:55.827Z,33.38
2018-12-05T12:35:23.273Z,29.07
2018-12-05T12:37:50.750Z,30.92
2018-12-05T12:40:18.298Z,35.40
2018-12-05T12:42:45.774Z,30.62
2018-12-05T12:45:13.258Z,30.60
2018-12-05T12:47:40.730Z,27.07
2018-12-05T12:50:08.187Z,31.05
2018-12-05T12:52:35.683Z,35.73
2018-12-05T12:55:03.298Z,35.52
2018-12-05T12:57:30.771Z,32.85
2018-12-05T12:59:58.229Z,34.25
2018-12-05T13:02:25.693Z,31.87
2018-12-05T13:04:53.183Z,29.42
2018-12-05T13:07:20.670Z,29.82
2018-12-05T13:09:48.122Z,30.10
2018-12-05T13:12:17.579Z,33.28
2018-12-05T13:14:45.066Z,27.60
2018-12-05T13:17:12.530Z,28.90
2018-12-05T13:19:40.021Z,27.65
2018-12-05T13:22:07.478Z,28.40
2018-12-05T13:24:34.942Z,34.10
2018-12-05T13:27:02.398Z,28.17
2018-12-05T13:29:29.880Z,27.10
2018-12-05T13:31:57.430Z,30.35
2018-12-05T13:34:25.055Z,28.55
2018-12-05T13:36:52.511Z,37.05
2018-12-05T13:39:19.975Z,29.95
2018-12-05T13:41:47.431Z,30.15
2018-12-05T13:44:14.913Z,28.57
2018-12-05T13:46:42.362Z,39.33
2018-12-05T13:49:09.844Z,39.33
2018-12-05T13:51:37.309Z,28.83
2018-12-05T13:54:04.834Z,29.42
2018-12-05T13:56:32.317Z,36.33
2018-12-05T13:58:59.774Z,32.55
2018-12-05T14:01:27.242Z,33.80
2018-12-05T14:03:54.701Z,29.00
2018-12-05T14:06:22.248Z,35.68
2018-12-05T14:08:49.696Z,26.75
2018-12-05T14:11:17.173Z,31.42
2018-12-05T14:13:44.639Z,21.15
2018-12-05T14:16:12.103Z,25.25
2018-12-05T14:18:39.669Z,31.10
2018-12-05T14:21:07.141Z,25.82
2018-12-05T14:23:34.605Z,29.07
2018-12-05T14:26:02.075Z,30.05
2018-12-05T14:28:29.515Z,33.18
2018-12-05T14:30:57.009Z,33.70
2018-12-05T14:33:24.450Z,29.52
2018-12-05T14:35:51.937Z,32.58
2018-12-05T14:38:19.410Z,35.43
2018-12-05T14:40:46.885Z,24.23
2018-12-05T14:43:14.503Z,28.07
2018-12-05T14:45:41.977Z,27.15
2018-12-05T14:48:09.431Z,28.60
2018-12-05T14:50:36.993Z,24.35
2018-12-05T14:53:04.590Z,36.35
2018-12-05T14:55:32.035Z,28.55
2018-12-05T14:57:59.589Z,33.15
2018-12-05T15:00:27.055Z,30.57
2018-12-05T15:02:54.523Z,37.65
2018-12-05T15:05:21.962Z,35.43
2018-12-05T15:07:49.446Z,25.60
2018-12-05T15:10:16.905Z,31.97
2018-12-05T15:12:46.422Z,27.77
2018-12-05T15:15:13.880Z,32.40
2018-12-05T15:17:41.349Z,26.50
2018-12-05T15:20:08.807Z,31.35
2018-12-05T15:22:36.278Z,37.63
2018-12-05T15:25:04.007Z,31.45
2018-12-05T15:27:31.475Z,29.52
2018-12-05T15:29:58.932Z,31.05
2018-12-05T15:32:26.423Z,36.30
2018-12-05T15:34:53.866Z,34.38
2018-12-05T15:37:21.361Z,38.50
2018-12-05T15:39:48.852Z,32.90
2018-12-05T15:42:16.302Z,46.92
2018-12-05T15:44:43.767Z,34.50
2018-12-05T15:47:11.234Z,39.92
2018-12-05T15:49:38.702Z,31.25
2018-12-05T15:52:06.232Z,33.15
2018-12-05T15:54:33.706Z,41.08
2018-12-05T15:57:01.174Z,30.27
2018-12-05T15:59:28.642Z,35.75
2018-12-05T16:01:56.329Z,33.23
2018-12-05T16:04:23.977Z,41.53
2018-12-05T16:06:51.450Z,31.87
2018-12-05T16:09:19.043Z,35.03
2018-12-05T16:11:46.678Z,34.10
2018-12-05T16:14:14.130Z,31.95
2018-12-05T16:16:41.656Z,42.23
2018-12-05T16:19:09.128Z,37.03
2018-12-05T16:21:36.614Z,34.08
2018-12-05T16:24:04.086Z,37.45
2018-12-05T16:26:31.569Z,35.98
2018-12-05T16:28:59.039Z,37.63
2018-12-05T16:31:26.525Z,36.10
2018-12-05T16:33:53.990Z,31.60
2018-12-05T16:36:21.459Z,33.18
2018-12-05T16:38:48.935Z,31.55
2018-12-05T16:41:16.408Z,36.30
2018-12-05T16:43:43.882Z,35.43
2018-12-05T16:46:11.371Z,36.90
2018-12-05T16:48:38.846Z,31.52
2018-12-05T16:51:06.342Z,39.42
2018-12-05T16:53:33.808Z,41.68
2018-12-05T16:56:01.355Z,35.75
2018-12-05T16:58:28.886Z,37.65
2018-12-05T17:00:56.345Z,31.75
2018-12-05T17:03:23.829Z,33.13
2018-12-05T17:05:51.302Z,35.92
2018-12-05T17:08:18.799Z,38.83
2018-12-05T17:10:46.265Z,36.83
2018-12-05T17:13:13.754Z,39.88
2018-12-05T17:15:41.221Z,39.08
2018-12-05T17:18:08.689Z,36.00
2018-12-05T17:20:36.151Z,41.92
2018-12-05T17:23:03.690Z,42.60
2018-12-05T17:25:31.154Z,44.63
2018-12-05T17:27:58.638Z,45.43
2018-12-05T17:30:26.108Z,39.05
2018-12-05T17:32:53.585Z,37.13
2018-12-05T17:35:21.107Z,43.63
2018-12-05T17:37:48.609Z,39.70
2018-12-05T17:40:16.082Z,37.35
2018-12-05T17:42:43.537Z,39.98
2018-12-05T17:45:11.110Z,37.45
2018-12-05T17:47:38.647Z,34.03
2018-12-05T17:50:06.419Z,34.20
2018-12-05T17:52:33.889Z,39.40
2018-12-05T17:55:01.356Z,45.73
2018-12-05T17:57:28.828Z,47.78
2018-12-05T17:59:56.289Z,42.90
2018-12-05T18:02:23.767Z,49.25
2018-12-05T18:04:51.254Z,46.08
2018-12-05T18:07:18.725Z,44.10
2018-12-05T18:09:46.214Z,39.85
2018-12-05T18:12:13.671Z,41.88
2018-12-05T18:14:41.152Z,46.58
2018-12-05T18:17:08.616Z,41.85
2018-12-05T18:19:36.098Z,49.08
2018-12-05T18:22:03.623Z,47.35
2018-12-05T18:24:31.167Z,38.67
2018-12-05T18:26:58.649Z,41.37
2018-12-05T18:29:26.099Z,49.55
2018-12-05T18:31:53.583Z,39.55
2018-12-05T18:34:21.045Z,40.75
2018-12-05T18:36:48.519Z,37.28
2018-12-05T18:39:15.981Z,35.00
2018-12-05T18:41:43.438Z,36.88
2018-12-05T18:44:10.927Z,41.90
2018-12-05T18:46:38.378Z,39.45
2018-12-05T18:49:05.907Z,32.80
2018-12-05T18:51:33.382Z,46.13
2018-12-05T18:54:00.833Z,43.85
2018-12-05T18:56:28.414Z,38.10
2018-12-05T18:58:55.863Z,46.40
2018-12-05T19:01:23.339Z,38.63
2018-12-05T19:03:50.862Z,38.38
2018-12-05T19:06:18.341Z,39.15
2018-12-05T19:08:45.885Z,40.05
2018-12-05T19:11:13.363Z,39.13
2018-12-05T19:13:46.585Z,49.45
2018-12-05T19:16:14.034Z,41.85
2018-12-05T19:18:41.502Z,40.03
2018-12-05T19:21:08.967Z,40.28
2018-12-05T19:23:36.479Z,38.08
2018-12-05T19:26:03.924Z,48.83
2018-12-05T19:28:31.406Z,46.05
2018-12-05T19:30:58.850Z,35.55
2018-12-05T19:33:26.342Z,43.13
2018-12-05T19:35:53.783Z,40.92
2018-12-05T19:38:21.258Z,40.03
2018-12-05T19:40:48.735Z,37.50
2018-12-05T19:43:16.237Z,39.38
2018-12-05T19:45:43.791Z,45.17
2018-12-05T19:48:11.238Z,36.77
2018-12-05T19:50:38.808Z,43.45
2018-12-05T19:53:06.358Z,35.75
2018-12-05T19:55:33.858Z,31.80
2018-12-05T19:58:01.409Z,34.67
2018-12-05T20:00:28.880Z,41.40
2018-12-05T20:03:00.767Z,37.93
2018-12-05T20:05:33.370Z,38.67
2018-12-05T20:08:01.788Z,49.27
2018-12-05T20:10:32.109Z,39.58
2018-12-05T20:12:59.684Z,40.28
2018-12-05T20:15:29.770Z,39.65
2018-12-05T20:17:57.236Z,41.33
2018-12-05T20:20:24.848Z,34.80
2018-12-05T20:22:55.722Z,39.50
2018-12-05T20:25:23.226Z,40.40
2018-12-05T20:27:50.703Z,42.78
2018-12-05T20:30:18.192Z,47.95
2018-12-05T20:32:45.679Z,40.55
2018-12-05T20:35:13.182Z,43.33
2018-12-05T20:37:40.680Z,41.20
2018-12-05T20:40:08.294Z,43.68
2018-12-05T20:42:35.787Z,44.30
2018-12-05T20:45:03.798Z,39.65
2018-12-05T20:47:31.288Z,41.70
2018-12-05T20:49:58.735Z,44.95
2018-12-05T20:52:26.251Z,42.33
2018-12-05T20:54:53.703Z,37.88
2018-12-05T20:57:21.179Z,45.20
2018-12-05T20:59:48.660Z,42.35
2018-12-05T21:02:16.144Z,54.98
2018-12-05T21:04:43.618Z,40.70
2018-12-05T21:07:11.097Z,44.00
2018-12-05T21:09:38.563Z,41.98
2018-12-05T21:12:06.043Z,43.35
2018-12-05T21:14:33.508Z,36.88
2018-12-05T21:17:01.011Z,42.33
2018-12-05T21:19:28.478Z,53.73
2018-12-05T21:21:55.962Z,45.20
2018-12-05T21:24:23.448Z,45.75
2018-12-05T21:26:50.923Z,50.83
2018-12-05T21:29:18.391Z,48.05
2018-12-05T21:31:45.858Z,46.10
2018-12-05T21:34:13.337Z,44.63
2018-12-05T21:36:40.824Z,41.37
2018-12-05T21:39:08.526Z,61.77
2018-12-05T21:41:36.093Z,53.42
2018-12-05T21:44:03.745Z,42.85
2018-12-05T21:46:31.223Z,49.03
2018-12-05T21:48:58.706Z,55.98
2018-12-05T21:51:26.155Z,43.85
2018-12-05T21:53:53.635Z,46.85
2018-12-05T21:56:21.124Z,44.27
2018-12-05T21:58:48.674Z,55.10
2018-12-05T22:01:16.146Z,45.80
2018-12-05T22:03:43.591Z,49.58
2018-12-05T22:06:11.080Z,50.48
2018-12-05T22:08:38.526Z,43.33
2018-12-05T22:11:05.992Z,41.35
2018-12-05T22:13:33.469Z,45.67
2018-12-05T22:16:00.924Z,40.35
2018-12-05T22:18:28.386Z,46.28
2018-12-05T22:20:55.869Z,44.40
2018-12-05T22:23:23.317Z,44.45
2018-12-05T22:25:50.786Z,48.20
2018-12-05T22:28:18.249Z,42.48
2018-12-05T22:30:45.804Z,43.85
2018-12-05T22:33:13.277Z,43.80
2018-12-05T22:35:40.737Z,38.30
2018-12-05T22:38:08.186Z,41.60
2018-12-05T22:40:35.742Z,48.42
2018-12-05T22:43:03.274Z,44.58
2018-12-05T22:45:30.720Z,44.45
2018-12-05T22:47:58.189Z,44.53
2018-12-05T22:50:25.648Z,46.08
2018-12-05T22:52:53.136Z,42.53
2018-12-05T22:55:20.680Z,47.70
2018-12-05T22:57:48.273Z,42.30
2018-12-05T23:00:19.607Z,46.55
2018-12-05T23:02:47.126Z,44.33
2018-12-05T23:05:14.626Z,46.25
2018-12-05T23:07:42.211Z,55.23
2018-12-05T23:10:09.747Z,44.77
2018-12-05T23:12:37.226Z,54.90
2018-12-05T23:15:05.131Z,49.98
2018-12-05T23:17:32.619Z,51.18
2018-12-05T23:20:00.202Z,44.00
2018-12-05T23:22:27.661Z,49.00
2018-12-05T23:24:55.118Z,46.58
2018-12-05T23:27:22.580Z,44.55
2018-12-05T23:29:50.043Z,42.45
2018-12-05T23:37:24.869Z,48.83
2018-12-05T23:39:52.343Z,41.90
2018-12-05T23:42:19.781Z,37.70
2018-12-05T23:44:47.250Z,39.88
2018-12-05T23:47:14.695Z,44.85
2018-12-05T23:49:43.071Z,38.75
2018-12-05T23:52:10.509Z,41.05
2018-12-05T23:54:37.989Z,35.83
2018-12-05T23:57:05.471Z,38.83
2018-12-05T23:59:32.908Z,42.67
